sensor_id;sensor_type;location;lat;lon;timestamp;temperature;humidity
55203;DHT22;41077;52.956;6.796;2023-08-21T00:01:15;16.30;99.90
55203;DHT22;41077;52.956;6.796;2023-08-21T00:03:41;16.20;99.90
55203;DHT22;41077;52.956;6.796;2023-08-21T00:06:06;16.10;99.90
55203;DHT22;41077;52.956;6.796;2023-08-21T00:08:32;16.10;99.90
55203;DHT22;41077;52.956;6.796;2023-08-21T00:10:58;16.10;99.90
55203;DHT22;41077;52.956;6.796;2023-08-21T00:13:23;16.00;99.90
55203;DHT22;41077;52.956;6.796;2023-08-21T00:15:49;16.00;99.90
55203;DHT22;41077;52.956;6.796;2023-08-21T00:18:15;15.90;99.90
55203;DHT22;41077;52.956;6.796;2023-08-21T00:20:40;15.90;99.90
55203;DHT22;41077;52.956;6.796;2023-08-21T00:23:08;15.90;99.90
55203;DHT22;41077;52.956;6.796;2023-08-21T00:25:34;15.90;99.90
55203;DHT22;41077;52.956;6.796;2023-08-21T00:28:00;15.90;99.90
55203;DHT22;41077;52.956;6.796;2023-08-21T00:30:26;15.90;99.90
55203;DHT22;41077;52.956;6.796;2023-08-21T00:32:51;15.90;99.90
55203;DHT22;41077;52.956;6.796;2023-08-21T00:35:17;15.90;99.90
55203;DHT22;41077;52.956;6.796;2023-08-21T00:37:43;16.00;99.90
55203;DHT22;41077;52.956;6.796;2023-08-21T00:40:09;16.00;99.90
55203;DHT22;41077;52.956;6.796;2023-08-21T00:42:35;16.00;99.90
55203;DHT22;41077;52.956;6.796;2023-08-21T00:45:00;15.90;99.90
55203;DHT22;41077;52.956;6.796;2023-08-21T00:47:26;15.90;99.90
55203;DHT22;41077;52.956;6.796;2023-08-21T00:49:52;15.90;99.90
55203;DHT22;41077;52.956;6.796;2023-08-21T00:52:18;15.90;99.90
55203;DHT22;41077;52.956;6.796;2023-08-21T00:54:44;15.80;99.90
55203;DHT22;41077;52.956;6.796;2023-08-21T00:57:10;15.70;99.90
55203;DHT22;41077;52.956;6.796;2023-08-21T00:59:37;15.60;99.90
55203;DHT22;41077;52.956;6.796;2023-08-21T01:02:03;15.60;99.90
55203;DHT22;41077;52.956;6.796;2023-08-21T01:04:29;15.50;99.90
55203;DHT22;41077;52.956;6.796;2023-08-21T01:06:57;15.60;99.90
55203;DHT22;41077;52.956;6.796;2023-08-21T01:17:24;15.20;99.90
55203;DHT22;41077;52.956;6.796;2023-08-21T01:19:51;15.20;99.90
55203;DHT22;41077;52.956;6.796;2023-08-21T01:22:17;15.30;99.90
55203;DHT22;41077;52.956;6.796;2023-08-21T01:24:43;15.30;99.90
55203;DHT22;41077;52.956;6.796;2023-08-21T01:27:10;15.20;99.90
55203;DHT22;41077;52.956;6.796;2023-08-21T01:29:37;15.20;99.90
55203;DHT22;41077;52.956;6.796;2023-08-21T01:32:21;15.20;99.90
55203;DHT22;41077;52.956;6.796;2023-08-21T01:34:50;15.10;99.90
55203;DHT22;41077;52.956;6.796;2023-08-21T01:37:17;15.10;99.90
55203;DHT22;41077;52.956;6.796;2023-08-21T01:39:43;15.00;99.90
55203;DHT22;41077;52.956;6.796;2023-08-21T01:42:08;15.10;99.90
55203;DHT22;41077;52.956;6.796;2023-08-21T01:44:34;15.10;99.90
55203;DHT22;41077;52.956;6.796;2023-08-21T01:46:59;15.10;99.90
55203;DHT22;41077;52.956;6.796;2023-08-21T01:49:25;15.20;99.90
55203;DHT22;41077;52.956;6.796;2023-08-21T01:51:51;15.20;99.90
55203;DHT22;41077;52.956;6.796;2023-08-21T01:54:16;15.20;99.90
55203;DHT22;41077;52.956;6.796;2023-08-21T01:56:42;15.20;99.90
55203;DHT22;41077;52.956;6.796;2023-08-21T01:59:08;15.20;99.90
55203;DHT22;41077;52.956;6.796;2023-08-21T02:01:33;15.20;99.90
55203;DHT22;41077;52.956;6.796;2023-08-21T02:03:59;15.10;99.90
55203;DHT22;41077;52.956;6.796;2023-08-21T02:06:25;15.10;99.90
55203;DHT22;41077;52.956;6.796;2023-08-21T02:08:50;15.10;99.90
55203;DHT22;41077;52.956;6.796;2023-08-21T02:11:16;15.10;99.90
55203;DHT22;41077;52.956;6.796;2023-08-21T02:13:42;15.20;99.90
55203;DHT22;41077;52.956;6.796;2023-08-21T02:16:07;15.20;99.90
55203;DHT22;41077;52.956;6.796;2023-08-21T02:18:33;15.20;99.90
55203;DHT22;41077;52.956;6.796;2023-08-21T02:21:01;15.10;99.90
55203;DHT22;41077;52.956;6.796;2023-08-21T02:23:27;15.10;99.90
55203;DHT22;41077;52.956;6.796;2023-08-21T02:25:54;15.10;99.90
55203;DHT22;41077;52.956;6.796;2023-08-21T02:28:19;15.10;99.90
55203;DHT22;41077;52.956;6.796;2023-08-21T02:30:45;15.20;99.90
55203;DHT22;41077;52.956;6.796;2023-08-21T02:33:11;15.20;99.90
55203;DHT22;41077;52.956;6.796;2023-08-21T02:35:37;15.10;99.90
55203;DHT22;41077;52.956;6.796;2023-08-21T02:38:03;15.10;99.90
55203;DHT22;41077;52.956;6.796;2023-08-21T02:40:28;15.10;99.90
55203;DHT22;41077;52.956;6.796;2023-08-21T02:42:54;15.10;99.90
55203;DHT22;41077;52.956;6.796;2023-08-21T02:45:20;15.10;99.90
55203;DHT22;41077;52.956;6.796;2023-08-21T02:47:45;15.10;99.90
55203;DHT22;41077;52.956;6.796;2023-08-21T02:50:11;15.10;99.90
55203;DHT22;41077;52.956;6.796;2023-08-21T02:52:37;15.10;99.90
55203;DHT22;41077;52.956;6.796;2023-08-21T02:55:04;15.10;99.90
55203;DHT22;41077;52.956;6.796;2023-08-21T02:57:30;15.10;99.90
55203;DHT22;41077;52.956;6.796;2023-08-21T02:59:56;15.10;99.90
55203;DHT22;41077;52.956;6.796;2023-08-21T03:02:22;15.10;99.90
55203;DHT22;41077;52.956;6.796;2023-08-21T03:04:49;15.00;99.90
55203;DHT22;41077;52.956;6.796;2023-08-21T03:07:15;15.00;99.90
55203;DHT22;41077;52.956;6.796;2023-08-21T03:09:41;14.90;99.90
55203;DHT22;41077;52.956;6.796;2023-08-21T03:12:07;14.80;99.90
55203;DHT22;41077;52.956;6.796;2023-08-21T03:14:33;14.80;99.90
55203;DHT22;41077;52.956;6.796;2023-08-21T03:16:59;14.80;99.90
55203;DHT22;41077;52.956;6.796;2023-08-21T03:19:25;14.80;99.90
55203;DHT22;41077;52.956;6.796;2023-08-21T03:21:50;14.80;99.90
55203;DHT22;41077;52.956;6.796;2023-08-21T03:24:17;14.80;99.90
55203;DHT22;41077;52.956;6.796;2023-08-21T03:26:43;14.80;99.90
55203;DHT22;41077;52.956;6.796;2023-08-21T03:29:09;14.80;99.90
55203;DHT22;41077;52.956;6.796;2023-08-21T03:31:34;14.80;99.90
55203;DHT22;41077;52.956;6.796;2023-08-21T03:34:00;14.70;99.90
55203;DHT22;41077;52.956;6.796;2023-08-21T03:36:26;14.80;99.90
55203;DHT22;41077;52.956;6.796;2023-08-21T03:39:00;14.80;99.90
55203;DHT22;41077;52.956;6.796;2023-08-21T03:41:26;14.80;99.90
55203;DHT22;41077;52.956;6.796;2023-08-21T03:43:52;14.80;99.90
55203;DHT22;41077;52.956;6.796;2023-08-21T03:46:18;14.80;99.90
55203;DHT22;41077;52.956;6.796;2023-08-21T03:48:44;14.80;99.90
55203;DHT22;41077;52.956;6.796;2023-08-21T03:51:10;14.80;99.90
55203;DHT22;41077;52.956;6.796;2023-08-21T03:53:35;14.80;99.90
55203;DHT22;41077;52.956;6.796;2023-08-21T03:56:01;14.80;99.90
55203;DHT22;41077;52.956;6.796;2023-08-21T03:58:27;14.80;99.90
55203;DHT22;41077;52.956;6.796;2023-08-21T04:00:53;14.70;99.90
55203;DHT22;41077;52.956;6.796;2023-08-21T04:03:19;14.70;99.90
55203;DHT22;41077;52.956;6.796;2023-08-21T04:05:45;14.60;99.90
55203;DHT22;41077;52.956;6.796;2023-08-21T04:08:11;14.50;99.90
55203;DHT22;41077;52.956;6.796;2023-08-21T04:10:37;14.50;99.90
55203;DHT22;41077;52.956;6.796;2023-08-21T04:13:04;14.50;99.90
55203;DHT22;41077;52.956;6.796;2023-08-21T04:15:30;14.60;99.90
55203;DHT22;41077;52.956;6.796;2023-08-21T04:17:56;14.50;99.90
55203;DHT22;41077;52.956;6.796;2023-08-21T04:20:21;14.50;99.90
55203;DHT22;41077;52.956;6.796;2023-08-21T04:22:48;14.50;99.90
55203;DHT22;41077;52.956;6.796;2023-08-21T04:25:14;14.50;99.90
55203;DHT22;41077;52.956;6.796;2023-08-21T04:27:39;14.50;99.90
55203;DHT22;41077;52.956;6.796;2023-08-21T04:30:05;14.50;99.90
55203;DHT22;41077;52.956;6.796;2023-08-21T04:32:31;14.50;99.90
55203;DHT22;41077;52.956;6.796;2023-08-21T04:34:57;14.60;99.90
55203;DHT22;41077;52.956;6.796;2023-08-21T04:37:23;14.60;99.90
55203;DHT22;41077;52.956;6.796;2023-08-21T04:39:52;14.60;99.90
55203;DHT22;41077;52.956;6.796;2023-08-21T04:42:18;14.50;99.90
55203;DHT22;41077;52.956;6.796;2023-08-21T04:44:44;14.40;99.90
55203;DHT22;41077;52.956;6.796;2023-08-21T04:47:26;14.30;99.90
55203;DHT22;41077;52.956;6.796;2023-08-21T04:49:53;14.30;99.90
55203;DHT22;41077;52.956;6.796;2023-08-21T04:52:20;14.30;99.90
55203;DHT22;41077;52.956;6.796;2023-08-21T04:54:47;14.30;99.90
55203;DHT22;41077;52.956;6.796;2023-08-21T04:57:13;14.30;99.90
55203;DHT22;41077;52.956;6.796;2023-08-21T04:59:39;14.30;99.90
55203;DHT22;41077;52.956;6.796;2023-08-21T05:02:05;14.40;99.90
55203;DHT22;41077;52.956;6.796;2023-08-21T05:04:31;14.40;99.90
55203;DHT22;41077;52.956;6.796;2023-08-21T05:06:56;14.40;99.90
55203;DHT22;41077;52.956;6.796;2023-08-21T05:09:22;14.40;99.90
55203;DHT22;41077;52.956;6.796;2023-08-21T05:11:47;14.30;99.90
55203;DHT22;41077;52.956;6.796;2023-08-21T05:14:13;14.40;99.90
55203;DHT22;41077;52.956;6.796;2023-08-21T05:16:39;14.40;99.90
55203;DHT22;41077;52.956;6.796;2023-08-21T05:19:04;14.40;99.90
55203;DHT22;41077;52.956;6.796;2023-08-21T05:21:30;14.40;99.90
55203;DHT22;41077;52.956;6.796;2023-08-21T05:23:56;14.40;99.90
55203;DHT22;41077;52.956;6.796;2023-08-21T05:26:21;14.40;99.90
55203;DHT22;41077;52.956;6.796;2023-08-21T05:28:47;14.40;99.90
55203;DHT22;41077;52.956;6.796;2023-08-21T05:31:13;14.50;99.90
55203;DHT22;41077;52.956;6.796;2023-08-21T05:33:38;14.60;99.90
55203;DHT22;41077;52.956;6.796;2023-08-21T05:36:05;14.60;99.90
55203;DHT22;41077;52.956;6.796;2023-08-21T05:38:31;14.70;99.90
55203;DHT22;41077;52.956;6.796;2023-08-21T05:40:57;14.70;99.90
55203;DHT22;41077;52.956;6.796;2023-08-21T05:43:23;14.80;99.90
55203;DHT22;41077;52.956;6.796;2023-08-21T05:45:49;14.80;99.90
55203;DHT22;41077;52.956;6.796;2023-08-21T05:48:15;14.90;99.90
55203;DHT22;41077;52.956;6.796;2023-08-21T05:50:42;15.00;99.90
55203;DHT22;41077;52.956;6.796;2023-08-21T05:53:08;15.00;99.90
55203;DHT22;41077;52.956;6.796;2023-08-21T05:55:36;15.10;99.90
55203;DHT22;41077;52.956;6.796;2023-08-21T05:58:02;15.20;99.90
55203;DHT22;41077;52.956;6.796;2023-08-21T06:00:28;15.20;99.90
55203;DHT22;41077;52.956;6.796;2023-08-21T06:02:54;15.20;99.90
55203;DHT22;41077;52.956;6.796;2023-08-21T06:05:19;15.20;99.90
55203;DHT22;41077;52.956;6.796;2023-08-21T06:07:45;15.30;99.90
55203;DHT22;41077;52.956;6.796;2023-08-21T06:10:11;15.40;99.90
55203;DHT22;41077;52.956;6.796;2023-08-21T06:12:39;15.50;99.90
55203;DHT22;41077;52.956;6.796;2023-08-21T06:15:06;15.60;99.90
55203;DHT22;41077;52.956;6.796;2023-08-21T06:17:34;15.70;99.90
55203;DHT22;41077;52.956;6.796;2023-08-21T06:19:59;15.80;99.90
55203;DHT22;41077;52.956;6.796;2023-08-21T06:22:25;15.90;99.90
55203;DHT22;41077;52.956;6.796;2023-08-21T06:24:51;16.00;99.90
55203;DHT22;41077;52.956;6.796;2023-08-21T06:27:17;16.10;99.90
55203;DHT22;41077;52.956;6.796;2023-08-21T06:29:42;16.10;99.90
55203;DHT22;41077;52.956;6.796;2023-08-21T06:32:08;16.20;99.90
55203;DHT22;41077;52.956;6.796;2023-08-21T06:34:34;16.30;99.90
55203;DHT22;41077;52.956;6.796;2023-08-21T06:36:59;16.40;99.90
55203;DHT22;41077;52.956;6.796;2023-08-21T06:39:26;16.50;99.90
55203;DHT22;41077;52.956;6.796;2023-08-21T06:41:51;16.60;99.90
55203;DHT22;41077;52.956;6.796;2023-08-21T06:44:17;16.70;99.90
55203;DHT22;41077;52.956;6.796;2023-08-21T06:46:43;16.80;99.90
55203;DHT22;41077;52.956;6.796;2023-08-21T06:49:09;16.80;99.90
55203;DHT22;41077;52.956;6.796;2023-08-21T06:51:34;16.90;99.90
55203;DHT22;41077;52.956;6.796;2023-08-21T06:54:01;17.00;99.90
55203;DHT22;41077;52.956;6.796;2023-08-21T06:56:26;17.20;99.90
55203;DHT22;41077;52.956;6.796;2023-08-21T06:58:52;17.20;99.90
55203;DHT22;41077;52.956;6.796;2023-08-21T07:01:20;17.30;99.90
55203;DHT22;41077;52.956;6.796;2023-08-21T07:03:46;17.50;99.90
55203;DHT22;41077;52.956;6.796;2023-08-21T07:06:12;17.50;99.90
55203;DHT22;41077;52.956;6.796;2023-08-21T07:08:38;17.60;99.90
55203;DHT22;41077;52.956;6.796;2023-08-21T07:11:06;17.80;99.90
55203;DHT22;41077;52.956;6.796;2023-08-21T07:13:33;17.80;99.90
55203;DHT22;41077;52.956;6.796;2023-08-21T07:15:59;17.90;99.90
55203;DHT22;41077;52.956;6.796;2023-08-21T07:18:30;18.00;99.90
55203;DHT22;41077;52.956;6.796;2023-08-21T07:20:56;18.10;99.90
55203;DHT22;41077;52.956;6.796;2023-08-21T07:23:21;18.10;99.90
55203;DHT22;41077;52.956;6.796;2023-08-21T07:25:47;18.20;99.90
55203;DHT22;41077;52.956;6.796;2023-08-21T07:28:13;18.30;99.90
55203;DHT22;41077;52.956;6.796;2023-08-21T07:30:39;18.40;99.90
55203;DHT22;41077;52.956;6.796;2023-08-21T07:33:05;18.50;99.90
55203;DHT22;41077;52.956;6.796;2023-08-21T07:35:32;18.60;99.90
55203;DHT22;41077;52.956;6.796;2023-08-21T07:37:58;18.70;99.90
55203;DHT22;41077;52.956;6.796;2023-08-21T07:40:23;18.80;99.90
55203;DHT22;41077;52.956;6.796;2023-08-21T07:42:49;18.90;99.90
55203;DHT22;41077;52.956;6.796;2023-08-21T07:45:15;19.00;99.90
55203;DHT22;41077;52.956;6.796;2023-08-21T07:47:41;19.10;99.90
55203;DHT22;41077;52.956;6.796;2023-08-21T07:50:07;19.20;99.90
55203;DHT22;41077;52.956;6.796;2023-08-21T07:52:34;19.30;99.90
55203;DHT22;41077;52.956;6.796;2023-08-21T07:55:00;19.30;99.90
55203;DHT22;41077;52.956;6.796;2023-08-21T07:57:29;19.40;99.90
55203;DHT22;41077;52.956;6.796;2023-08-21T07:59:56;19.50;99.90
55203;DHT22;41077;52.956;6.796;2023-08-21T08:02:22;19.60;99.90
55203;DHT22;41077;52.956;6.796;2023-08-21T08:04:48;19.70;99.90
55203;DHT22;41077;52.956;6.796;2023-08-21T08:07:14;19.80;99.90
55203;DHT22;41077;52.956;6.796;2023-08-21T08:09:39;19.90;99.90
55203;DHT22;41077;52.956;6.796;2023-08-21T08:12:05;20.00;99.90
55203;DHT22;41077;52.956;6.796;2023-08-21T08:14:31;20.00;99.90
55203;DHT22;41077;52.956;6.796;2023-08-21T08:16:57;20.20;99.90
55203;DHT22;41077;52.956;6.796;2023-08-21T08:19:23;20.30;99.90
55203;DHT22;41077;52.956;6.796;2023-08-21T08:21:48;20.30;99.90
55203;DHT22;41077;52.956;6.796;2023-08-21T08:24:14;20.40;99.90
55203;DHT22;41077;52.956;6.796;2023-08-21T08:26:40;20.50;99.90
55203;DHT22;41077;52.956;6.796;2023-08-21T08:29:10;20.60;99.90
55203;DHT22;41077;52.956;6.796;2023-08-21T08:31:36;20.60;99.90
55203;DHT22;41077;52.956;6.796;2023-08-21T08:34:04;20.70;99.90
55203;DHT22;41077;52.956;6.796;2023-08-21T08:36:30;20.80;99.90
55203;DHT22;41077;52.956;6.796;2023-08-21T08:38:55;20.90;99.90
55203;DHT22;41077;52.956;6.796;2023-08-21T08:41:25;20.90;99.90
55203;DHT22;41077;52.956;6.796;2023-08-21T08:43:56;21.00;99.90
55203;DHT22;41077;52.956;6.796;2023-08-21T08:46:24;21.10;99.90
55203;DHT22;41077;52.956;6.796;2023-08-21T08:48:52;21.20;99.90
55203;DHT22;41077;52.956;6.796;2023-08-21T08:51:19;21.30;99.90
55203;DHT22;41077;52.956;6.796;2023-08-21T08:53:44;21.40;99.90
55203;DHT22;41077;52.956;6.796;2023-08-21T08:56:10;21.50;99.90
55203;DHT22;41077;52.956;6.796;2023-08-21T08:58:36;21.60;99.90
55203;DHT22;41077;52.956;6.796;2023-08-21T09:01:02;21.60;99.90
55203;DHT22;41077;52.956;6.796;2023-08-21T09:03:28;21.70;99.90
55203;DHT22;41077;52.956;6.796;2023-08-21T09:05:54;21.80;99.90
55203;DHT22;41077;52.956;6.796;2023-08-21T09:08:20;21.90;99.90
55203;DHT22;41077;52.956;6.796;2023-08-21T09:10:46;22.00;99.90
55203;DHT22;41077;52.956;6.796;2023-08-21T09:13:13;22.10;99.90
55203;DHT22;41077;52.956;6.796;2023-08-21T09:15:41;22.10;99.90
55203;DHT22;41077;52.956;6.796;2023-08-21T09:18:11;22.20;99.90
55203;DHT22;41077;52.956;6.796;2023-08-21T09:20:37;22.20;99.90
55203;DHT22;41077;52.956;6.796;2023-08-21T09:23:03;22.30;99.90
55203;DHT22;41077;52.956;6.796;2023-08-21T09:25:37;22.30;99.90
55203;DHT22;41077;52.956;6.796;2023-08-21T09:28:08;22.40;99.90
55203;DHT22;41077;52.956;6.796;2023-08-21T09:30:50;22.40;99.90
55203;DHT22;41077;52.956;6.796;2023-08-21T09:33:18;22.50;99.90
55203;DHT22;41077;52.956;6.796;2023-08-21T09:35:44;22.60;99.90
55203;DHT22;41077;52.956;6.796;2023-08-21T09:38:10;22.60;99.90
55203;DHT22;41077;52.956;6.796;2023-08-21T09:40:40;22.70;99.90
55203;DHT22;41077;52.956;6.796;2023-08-21T09:43:08;22.80;99.90
55203;DHT22;41077;52.956;6.796;2023-08-21T09:45:34;22.90;99.90
55203;DHT22;41077;52.956;6.796;2023-08-21T09:48:00;23.00;99.90
55203;DHT22;41077;52.956;6.796;2023-08-21T09:50:28;23.10;99.90
55203;DHT22;41077;52.956;6.796;2023-08-21T09:52:56;23.10;99.90
55203;DHT22;41077;52.956;6.796;2023-08-21T09:55:22;23.20;99.90
55203;DHT22;41077;52.956;6.796;2023-08-21T09:57:48;23.30;99.90
55203;DHT22;41077;52.956;6.796;2023-08-21T10:00:22;23.30;99.90
55203;DHT22;41077;52.956;6.796;2023-08-21T10:02:50;23.30;99.90
55203;DHT22;41077;52.956;6.796;2023-08-21T10:05:17;23.30;99.90
55203;DHT22;41077;52.956;6.796;2023-08-21T10:07:49;23.40;99.90
55203;DHT22;41077;52.956;6.796;2023-08-21T10:10:17;23.40;99.90
55203;DHT22;41077;52.956;6.796;2023-08-21T10:12:43;23.50;99.90
55203;DHT22;41077;52.956;6.796;2023-08-21T10:15:09;23.60;99.90
55203;DHT22;41077;52.956;6.796;2023-08-21T10:17:38;23.70;99.90
55203;DHT22;41077;52.956;6.796;2023-08-21T10:20:05;23.80;99.90
55203;DHT22;41077;52.956;6.796;2023-08-21T10:23:01;23.80;99.90
55203;DHT22;41077;52.956;6.796;2023-08-21T10:25:27;23.90;99.90
55203;DHT22;41077;52.956;6.796;2023-08-21T10:27:57;24.00;99.90
55203;DHT22;41077;52.956;6.796;2023-08-21T10:30:26;24.20;99.90
55203;DHT22;41077;52.956;6.796;2023-08-21T10:32:53;24.20;99.90
55203;DHT22;41077;52.956;6.796;2023-08-21T10:35:24;24.20;99.90
55203;DHT22;41077;52.956;6.796;2023-08-21T10:40:32;24.40;99.90
55203;DHT22;41077;52.956;6.796;2023-08-21T10:42:59;24.40;99.90
55203;DHT22;41077;52.956;6.796;2023-08-21T10:45:25;24.50;99.90
55203;DHT22;41077;52.956;6.796;2023-08-21T10:47:51;24.60;99.90
55203;DHT22;41077;52.956;6.796;2023-08-21T10:50:17;24.80;99.90
55203;DHT22;41077;52.956;6.796;2023-08-21T10:52:43;24.90;99.90
55203;DHT22;41077;52.956;6.796;2023-08-21T10:55:14;24.90;99.90
55203;DHT22;41077;52.956;6.796;2023-08-21T10:57:41;25.00;99.90
55203;DHT22;41077;52.956;6.796;2023-08-21T11:00:09;25.00;99.90
55203;DHT22;41077;52.956;6.796;2023-08-21T11:02:36;25.10;99.90
55203;DHT22;41077;52.956;6.796;2023-08-21T11:05:02;25.20;99.90
55203;DHT22;41077;52.956;6.796;2023-08-21T11:07:29;25.30;99.90
55203;DHT22;41077;52.956;6.796;2023-08-21T11:09:55;25.40;99.90
55203;DHT22;41077;52.956;6.796;2023-08-21T11:12:22;25.50;99.90
55203;DHT22;41077;52.956;6.796;2023-08-21T11:14:48;25.60;98.90
55203;DHT22;41077;52.956;6.796;2023-08-21T11:17:15;25.80;99.20
55203;DHT22;41077;52.956;6.796;2023-08-21T11:19:41;25.90;99.10
55203;DHT22;41077;52.956;6.796;2023-08-21T11:22:08;26.10;99.70
55203;DHT22;41077;52.956;6.796;2023-08-21T11:27:06;26.20;96.70
55203;DHT22;41077;52.956;6.796;2023-08-21T11:29:45;26.40;97.30
55203;DHT22;41077;52.956;6.796;2023-08-21T11:32:20;26.60;96.50
55203;DHT22;41077;52.956;6.796;2023-08-21T11:34:49;26.70;97.60
55203;DHT22;41077;52.956;6.796;2023-08-21T11:37:19;26.80;98.20
55203;DHT22;41077;52.956;6.796;2023-08-21T11:39:50;26.70;97.00
55203;DHT22;41077;52.956;6.796;2023-08-21T11:42:29;26.70;95.80
55203;DHT22;41077;52.956;6.796;2023-08-21T11:44:55;26.80;96.30
55203;DHT22;41077;52.956;6.796;2023-08-21T11:47:22;26.90;96.20
55203;DHT22;41077;52.956;6.796;2023-08-21T11:49:49;27.00;96.70
55203;DHT22;41077;52.956;6.796;2023-08-21T11:52:20;27.20;95.20
55203;DHT22;41077;52.956;6.796;2023-08-21T11:54:50;27.30;96.10
55203;DHT22;41077;52.956;6.796;2023-08-21T11:57:16;27.40;94.90
55203;DHT22;41077;52.956;6.796;2023-08-21T11:59:43;27.40;95.70
55203;DHT22;41077;52.956;6.796;2023-08-21T12:02:18;27.40;94.20
55203;DHT22;41077;52.956;6.796;2023-08-21T12:04:44;27.40;94.00
55203;DHT22;41077;52.956;6.796;2023-08-21T12:07:10;27.40;93.10
55203;DHT22;41077;52.956;6.796;2023-08-21T12:09:37;27.40;92.50
55203;DHT22;41077;52.956;6.796;2023-08-21T12:12:03;27.50;92.50
55203;DHT22;41077;52.956;6.796;2023-08-21T12:14:29;27.50;92.80
55203;DHT22;41077;52.956;6.796;2023-08-21T12:16:55;27.50;92.50
55203;DHT22;41077;52.956;6.796;2023-08-21T12:19:24;27.60;92.80
55203;DHT22;41077;52.956;6.796;2023-08-21T12:21:50;27.50;91.20
55203;DHT22;41077;52.956;6.796;2023-08-21T12:24:17;27.60;92.10
55203;DHT22;41077;52.956;6.796;2023-08-21T12:26:42;27.70;92.40
55203;DHT22;41077;52.956;6.796;2023-08-21T12:29:08;27.80;92.30
55203;DHT22;41077;52.956;6.796;2023-08-21T12:31:33;27.80;91.30
55203;DHT22;41077;52.956;6.796;2023-08-21T12:33:59;27.90;91.80
55203;DHT22;41077;52.956;6.796;2023-08-21T12:36:25;27.60;91.10
55203;DHT22;41077;52.956;6.796;2023-08-21T12:38:51;27.30;92.00
55203;DHT22;41077;52.956;6.796;2023-08-21T12:41:16;26.80;92.20
55203;DHT22;41077;52.956;6.796;2023-08-21T12:43:42;26.60;92.00
55203;DHT22;41077;52.956;6.796;2023-08-21T12:46:08;26.30;92.70
55203;DHT22;41077;52.956;6.796;2023-08-21T12:48:33;26.10;92.10
55203;DHT22;41077;52.956;6.796;2023-08-21T12:50:59;25.90;92.60
55203;DHT22;41077;52.956;6.796;2023-08-21T12:53:25;25.70;93.20
55203;DHT22;41077;52.956;6.796;2023-08-21T12:55:50;25.50;92.90
55203;DHT22;41077;52.956;6.796;2023-08-21T12:58:16;25.20;94.00
55203;DHT22;41077;52.956;6.796;2023-08-21T13:00:43;25.00;93.90
55203;DHT22;41077;52.956;6.796;2023-08-21T13:03:09;24.90;94.20
55203;DHT22;41077;52.956;6.796;2023-08-21T13:05:34;24.80;94.90
55203;DHT22;41077;52.956;6.796;2023-08-21T13:08:01;24.70;93.80
55203;DHT22;41077;52.956;6.796;2023-08-21T13:10:26;24.80;95.30
55203;DHT22;41077;52.956;6.796;2023-08-21T13:12:52;24.90;94.30
55203;DHT22;41077;52.956;6.796;2023-08-21T13:15:18;25.00;92.80
55203;DHT22;41077;52.956;6.796;2023-08-21T13:17:43;25.10;91.60
55203;DHT22;41077;52.956;6.796;2023-08-21T13:20:09;25.10;91.00
55203;DHT22;41077;52.956;6.796;2023-08-21T13:22:48;25.10;91.30
55203;DHT22;41077;52.956;6.796;2023-08-21T13:25:15;25.20;91.50
55203;DHT22;41077;52.956;6.796;2023-08-21T13:27:41;25.30;91.00
55203;DHT22;41077;52.956;6.796;2023-08-21T13:30:07;25.40;91.00
55203;DHT22;41077;52.956;6.796;2023-08-21T13:32:34;25.40;88.90
55203;DHT22;41077;52.956;6.796;2023-08-21T13:34:59;25.30;91.50
55203;DHT22;41077;52.956;6.796;2023-08-21T13:37:25;25.30;91.30
55203;DHT22;41077;52.956;6.796;2023-08-21T13:39:52;25.20;91.70
55203;DHT22;41077;52.956;6.796;2023-08-21T13:42:18;25.10;91.60
55203;DHT22;41077;52.956;6.796;2023-08-21T13:44:44;25.00;91.30
55203;DHT22;41077;52.956;6.796;2023-08-21T13:47:10;25.00;91.00
55203;DHT22;41077;52.956;6.796;2023-08-21T13:49:37;25.00;92.00
55203;DHT22;41077;52.956;6.796;2023-08-21T13:52:03;25.00;92.20
55203;DHT22;41077;52.956;6.796;2023-08-21T13:54:28;25.00;92.50
55203;DHT22;41077;52.956;6.796;2023-08-21T13:56:55;25.00;92.90
55203;DHT22;41077;52.956;6.796;2023-08-21T13:59:20;25.20;91.50
55203;DHT22;41077;52.956;6.796;2023-08-21T14:01:46;25.20;91.80
55203;DHT22;41077;52.956;6.796;2023-08-21T14:04:11;25.20;91.90
55203;DHT22;41077;52.956;6.796;2023-08-21T14:06:37;25.20;91.30
55203;DHT22;41077;52.956;6.796;2023-08-21T14:09:03;25.10;91.30
55203;DHT22;41077;52.956;6.796;2023-08-21T14:11:28;25.00;92.10
55203;DHT22;41077;52.956;6.796;2023-08-21T14:13:54;24.90;92.20
55203;DHT22;41077;52.956;6.796;2023-08-21T14:16:20;24.90;92.90
55203;DHT22;41077;52.956;6.796;2023-08-21T14:18:46;25.00;93.90
55203;DHT22;41077;52.956;6.796;2023-08-21T14:21:12;25.10;93.60
55203;DHT22;41077;52.956;6.796;2023-08-21T14:23:37;25.20;93.40
55203;DHT22;41077;52.956;6.796;2023-08-21T14:26:04;25.40;92.50
55203;DHT22;41077;52.956;6.796;2023-08-21T14:28:30;25.40;92.00
55203;DHT22;41077;52.956;6.796;2023-08-21T14:30:56;25.30;92.80
55203;DHT22;41077;52.956;6.796;2023-08-21T14:33:22;25.20;92.20
55203;DHT22;41077;52.956;6.796;2023-08-21T14:35:47;25.30;92.00
55203;DHT22;41077;52.956;6.796;2023-08-21T14:38:13;25.50;92.20
55203;DHT22;41077;52.956;6.796;2023-08-21T14:40:39;25.70;91.70
55203;DHT22;41077;52.956;6.796;2023-08-21T14:43:05;25.60;91.60
55203;DHT22;41077;52.956;6.796;2023-08-21T14:45:30;25.60;92.00
55203;DHT22;41077;52.956;6.796;2023-08-21T14:47:56;25.50;91.90
55203;DHT22;41077;52.956;6.796;2023-08-21T14:50:22;25.40;92.80
55203;DHT22;41077;52.956;6.796;2023-08-21T14:52:47;25.40;93.10
55203;DHT22;41077;52.956;6.796;2023-08-21T14:55:13;25.50;92.80
55203;DHT22;41077;52.956;6.796;2023-08-21T14:57:39;25.50;92.30
55203;DHT22;41077;52.956;6.796;2023-08-21T15:00:05;25.40;92.50
55203;DHT22;41077;52.956;6.796;2023-08-21T15:02:31;25.30;92.50
55203;DHT22;41077;52.956;6.796;2023-08-21T15:04:57;25.20;93.30
55203;DHT22;41077;52.956;6.796;2023-08-21T15:07:22;25.10;94.40
55203;DHT22;41077;52.956;6.796;2023-08-21T15:09:48;25.00;94.30
55203;DHT22;41077;52.956;6.796;2023-08-21T15:12:14;24.90;94.10
55203;DHT22;41077;52.956;6.796;2023-08-21T15:14:40;24.90;93.90
55203;DHT22;41077;52.956;6.796;2023-08-21T15:17:06;24.80;94.60
55203;DHT22;41077;52.956;6.796;2023-08-21T15:19:31;24.80;96.10
55203;DHT22;41077;52.956;6.796;2023-08-21T15:21:57;24.80;95.70
55203;DHT22;41077;52.956;6.796;2023-08-21T15:24:23;24.90;98.20
55203;DHT22;41077;52.956;6.796;2023-08-21T15:26:48;25.00;98.30
55203;DHT22;41077;52.956;6.796;2023-08-21T15:29:14;25.20;96.40
55203;DHT22;41077;52.956;6.796;2023-08-21T15:31:39;25.30;95.80
55203;DHT22;41077;52.956;6.796;2023-08-21T15:34:05;25.40;95.50
55203;DHT22;41077;52.956;6.796;2023-08-21T15:36:32;25.50;93.60
55203;DHT22;41077;52.956;6.796;2023-08-21T15:38:57;25.60;92.80